1948 Tropical Low NOT_NAMED (1948049S15119)


IBTrACS version v04r00. Visit IBTrACS website for data access.
Please direct all questions to the IBTrACS Q and A forum

Storm track - Intensity - Wind Radii - Intensity Data - Source Data - All data

Summary Information

Storm ID 1948049S15119
Start Feb 17 23Z
Landfall Feb 20 12Z
Max Intensity 950 mb (Feb 20 01Z)
End Feb 23 01Z
ATCF IDs ,SH141948
Track status Best track data.

Storm track plot

Map of storm track

Intensity plots

Map of storm track

Radial wind information

No radial wind information for this storm


Position and Intensity Table

BASIN ISO_TIME_________ NATURE LAT LON WMO PRES BOM PRES
degrees north degrees east mb mb
SI 1948-02-17 23:00:00 NR -15.00 119.00
SI 1948-02-18 00:00:00 TS -15.10 119.01
SI 01:00:00 TS -15.05 118.94 990 990
SI 03:00:00 TS -15.21 118.96
SI 06:00:00 TS -15.48 118.98
SI 09:00:00 TS -15.72 118.94
SI 11:00:00 TS -15.90 118.93
SI 12:00:00 TS -15.99 118.93
SI 15:00:00 TS -16.27 118.89
SI 18:00:00 TS -16.55 118.83
SI 21:00:00 TS -16.83 118.75
SI 23:00:00 TS -17.02 118.68
SI 1948-02-19 00:00:00 TS -17.11 118.60
SI 01:00:00 TS -17.21 118.52 960 960
SI 03:00:00 TS -17.43 118.39
SI 06:00:00 TS -17.77 118.20
SI 09:00:00 TS -18.10 118.04
SI 11:00:00 TS -18.31 117.92
SI 12:00:00 TS -18.42 117.86
SI 15:00:00 TS -18.74 117.66
SI 18:00:00 TS -19.06 117.45
SI 21:00:00 TS -19.37 117.23
SI 23:00:00 TS -19.59 117.08
SI 1948-02-20 00:00:00 TS -19.70 117.00
SI 01:00:00 TS -19.81 116.92 950 950
SI 03:00:00 TS -20.04 116.75 950
SI 06:00:00 TS -20.39 116.50 950
SI 07:00:00 TS -20.51 116.42 950 950
SI 09:00:00 TS -20.73 116.26 950
SI 11:00:00 TS -20.95 116.10 950 950
SI 12:00:00 TS -21.06 116.02
SI 15:00:00 TS -21.40 115.77
SI 18:00:00 TS -21.78 115.53
SI 21:00:00 TS -22.20 115.29
SI 23:00:00 TS -22.51 115.19
SI 1948-02-21 00:00:00 TS -22.69 115.16
SI 01:00:00 TS -22.87 115.15 978 978
SI 03:00:00 TS -23.28 115.19
SI 06:00:00 TS -23.93 115.36
SI 09:00:00 TS -24.59 115.61
SI 11:00:00 TS -25.02 115.84
SI 12:00:00 TS -25.22 115.96
SI 13:00:00 TS -25.41 116.09
SI 15:00:00 TS -25.78 116.37
SI 18:00:00 TS -26.31 116.87
SI 21:00:00 TS -26.83 117.43
SI 23:00:00 TS -27.17 117.83
SI 1948-02-22 00:00:00 TS -27.35 118.04
SI 01:00:00 TS -27.51 118.25 984 984
SI 03:00:00 TS -27.84 118.69
SI 06:00:00 TS -28.34 119.38
SI 09:00:00 TS -28.85 120.11
SI 11:00:00 TS -29.19 120.62
SI 12:00:00 TS -29.30 120.84
SI 15:00:00 TS -29.68 121.55
SI 18:00:00 TS -29.99 122.20
SI 21:00:00 TS -30.27 122.80
SI 23:00:00 TS -30.52 123.24
SI 1948-02-23 00:00:00 TS -30.53 123.27
SI 01:00:00 NR -30.70 123.50 994 994

Source Information

Agency Information
USA bsh141948.txt
TOKYO
CMA
HKO
NEWDELHI
REUNION
BOM IDCKMSTM0S.csv:Line=1419:unnamed
NADI
WELLINGTON
DS824 s_hem.dat:487:14S
TD9636 cons_worldwide_trop_cyclone_18710101-19891231-006:Line=3241
TD9635
NEUMANN
MLC

All available IBTrACS Data

SEASON BASIN SUBBASIN ISO_TIME_________ NATURE LAT LON WMO PRES WMO AGENCY DIST2LAND LANDFALL IFLAG USA AGENCY USA ATCF_ID USA LAT USA LON USA SSHS BOM LAT BOM LON BOM PRES BOM PRES_METHOD DS824 LAT DS824 LON DS824 STAGE TD9636 LAT TD9636 LON TD9636 STAGE STORM SPEED STORM DIR
Year degrees north degrees east mb km km degrees north degrees east 1 degrees north degrees east mb degrees north degrees east degrees north degrees east kts degrees
1948 SI WA 1948-02-17 23:00:00 NR -15.00 119.00 423 417 __________O___ -1 -15.00 119.00 7 6 0
1948 SI WA 1948-02-18 00:00:00 TS -15.10 119.01 417 417 O________OP___ jtwc_sh SH141948 -15.10 119.00 -1 -15.10 119.00 TC -15.10 119.03 7 2 232
1948 SI WA 01:00:00 TS -15.05 118.94 990 bom 432 411 P_____O__PP___ SH141948 -15.20 119.04 -1 -14.00 118.20 990 -15.20 119.04 TC -15.19 119.05 7 2 209
1948 SI WA 03:00:00 TS -15.21 118.96 411 395 P_____P__PP___ SH141948 -15.41 119.12 -1 -14.25 118.19 -15.41 119.12 TC -15.38 119.10 7 5 174
1948 SI WA 06:00:00 TS -15.48 118.98 395 385 O_____P__OP___ jtwc_sh SH141948 -15.70 119.20 -1 -14.64 118.16 -15.70 119.20 TC -15.66 119.16 7 5 0
1948 SI WA 09:00:00 TS -15.72 118.94 394 385 P_____P__PP___ SH141948 -15.96 119.22 -1 -15.02 118.14 -15.96 119.22 TC -15.93 119.19 7 5 186
1948 SI WA 11:00:00 TS -15.90 118.93 385 380 P_____P__PO___ SH141948 -16.12 119.21 -1 -15.27 118.12 -16.12 119.21 TC -16.10 119.20 7 6 182
1948 SI WA 12:00:00 TS -15.99 118.93 380 368 O_____P__OP___ jtwc_sh SH141948 -16.20 119.20 -1 -15.40 118.11 -16.20 119.20 TC -16.18 119.20 7 6 184
1948 SI WA 15:00:00 TS -16.27 118.89 368 361 P_____P__PP___ SH141948 -16.45 119.16 -1 -15.77 118.07 -16.45 119.16 TC -16.42 119.16 7 6 189
1948 SI WA 18:00:00 TS -16.55 118.83 368 361 O_____P__OP___ jtwc_sh SH141948 -16.70 119.10 -1 -16.14 118.03 -16.70 119.10 TC -16.67 119.09 7 6 193
1948 SI WA 21:00:00 TS -16.83 118.75 361 349 P_____P__PP___ SH141948 -16.93 119.02 -1 -16.51 117.98 -16.93 119.02 TC -16.92 118.99 7 6 197
1948 SI WA 23:00:00 TS -17.02 118.68 349 339 P_____P__PO___ SH141948 -17.11 118.95 -1 -16.76 117.94 -17.11 118.95 TC -17.10 118.90 7 6 207
1948 SI WA 1948-02-19 00:00:00 TS -17.11 118.60 339 328 O_____P__OP___ jtwc_sh SH141948 -17.20 118.90 -1 -16.88 117.92 -17.20 118.90 TC -17.20 118.86 7 7 220
1948 SI WA 01:00:00 TS -17.21 118.52 960 bom 330 310 P_____O__PP___ SH141948 -17.31 118.84 -1 -17.00 117.90 960 -17.31 118.84 TC -17.30 118.81 7 8 213
1948 SI WA 03:00:00 TS -17.43 118.39 310 281 P_____P__PP___ SH141948 -17.54 118.72 -1 -17.24 117.85 -17.54 118.72 TC -17.52 118.71 7 8 209
1948 SI WA 06:00:00 TS -17.77 118.20 274 247 O_____P__OP___ jtwc_sh SH141948 -17.90 118.50 -1 -17.60 117.77 -17.90 118.50 TC -17.85 118.54 7 8 206
1948 SI WA 09:00:00 TS -18.10 118.04 251 232 P_____P__PP___ SH141948 -18.21 118.31 -1 -17.95 117.67 -18.21 118.31 TC -18.18 118.34 7 7 205
1948 SI WA 11:00:00 TS -18.31 117.92 235 224 P_____P__PO___ SH141948 -18.40 118.17 -1 -18.18 117.60 -18.40 118.17 TC -18.40 118.20 7 7 208
1948 SI WA 12:00:00 TS -18.42 117.86 224 194 O_____P__OP___ jtwc_sh SH141948 -18.50 118.10 -1 -18.30 117.55 -18.50 118.10 TC -18.50 118.13 7 7 210
1948 SI WA 15:00:00 TS -18.74 117.66 194 168 P_____P__PP___ SH141948 -18.80 117.86 -1 -18.64 117.42 -18.80 117.86 TC -18.80 117.90 7 8 211
1948 SI WA 18:00:00 TS -19.06 117.45 158 140 O_____P__OP___ jtwc_sh SH141948 -19.10 117.60 -1 -18.99 117.26 -19.10 117.60 TC -19.09 117.64 7 8 213
1948 SI WA 21:00:00 TS -19.37 117.23 140 116 P_____P__PP___ SH141948 -19.39 117.35 -1 -19.34 117.08 -19.39 117.35 TC -19.39 117.38 7 8 214
1948 SI WA 23:00:00 TS -19.59 117.08 116 102 P_____P__PO___ SH141948 -19.59 117.18 -1 -19.57 116.95 -19.59 117.18 TC -19.60 117.20 7 8 214
1948 SI WA 1948-02-20 00:00:00 TS -19.70 117.00 102 90 O_____P__OP___ jtwc_sh SH141948 -19.70 117.10 -1 -19.68 116.88 -19.70 117.10 TC -19.71 117.11 7 8 214
1948 SI WA 01:00:00 TS -19.81 116.92 950 bom 90 67 P_____O__PP___ SH141948 -19.81 117.02 -1 -19.80 116.80 950 -19.81 117.02 TC -19.81 117.02 7 8 214
1948 SI WA 03:00:00 TS -20.04 116.75 67 30 P_____P__PP___ SH141948 -20.04 116.86 -1 -20.04 116.61 950 -20.04 116.86 TC -20.03 116.84 7 8 214
1948 SI WA 06:00:00 TS -20.39 116.50 30 23 O_____P__OP___ jtwc_sh SH141948 -20.40 116.60 -1 -20.39 116.36 950 -20.40 116.60 TC -20.38 116.56 7 8 214
1948 SI WA 07:00:00 TS -20.51 116.42 950 bom 30 22 P_____O__PP___ SH141948 -20.51 116.50 -1 -20.50 116.30 950 4 -20.51 116.50 TC -20.50 116.46 7 8 214
1948 SI WA 09:00:00 TS -20.73 116.26 22 0 P_____P__PP___ SH141948 -20.74 116.30 -1 -20.70 116.24 950 -20.74 116.30 TC -20.74 116.28 7 8 214
1948 SI WA 11:00:00 TS -20.95 116.10 950 bom 10 10 P_____O__PO___ SH141948 -20.98 116.10 -1 -20.90 116.20 950 -20.98 116.10 TC -21.00 116.10 7 8 214
1948 SI WA 12:00:00 TS -21.06 116.02 0 0 O_____P__OP___ jtwc_sh SH141948 -21.10 116.00 -1 -21.00 116.15 -21.10 116.00 TC -21.12 115.99 7 8 215
1948 SI WA 15:00:00 TS -21.40 115.77 0 0 P_____P__PP___ SH141948 -21.48 115.74 -1 -21.28 115.95 -21.48 115.74 TC -21.49 115.66 7 9 213
1948 SI WA 18:00:00 TS -21.78 115.53 0 0 O_____P__OP___ jtwc_sh SH141948 -21.90 115.50 -1 -21.59 115.70 -21.90 115.50 TC -21.90 115.37 7 9 209
1948 SI WA 21:00:00 TS -22.20 115.29 0 0 P_____P__PP___ SH141948 -22.36 115.19 -1 -21.93 115.47 -22.36 115.19 TC -22.36 115.16 7 10 203
1948 SI WA 23:00:00 TS -22.51 115.19 0 0 P_____P__PO___ SH141948 -22.71 115.04 -1 -22.20 115.36 -22.71 115.04 TC -22.70 115.10 7 10 194
1948 SI WA 1948-02-21 00:00:00 TS -22.69 115.16 0 0 O_____P__OP___ jtwc_sh SH141948 -22.90 115.00 -1 -22.34 115.32 -22.90 115.00 TC -22.89 115.09 7 11 186
1948 SI WA 01:00:00 TS -22.87 115.15 978 bom 0 0 P_____O__PP___ SH141948 -23.10 114.99 -1 -22.50 115.30 978 -23.10 114.99 TC -23.09 115.10 7 12 175
1948 SI WA 03:00:00 TS -23.28 115.19 0 0 P_____P__PP___ SH141948 -23.53 115.06 -1 -22.87 115.30 -23.53 115.06 TC -23.52 115.15 7 13 170
1948 SI WA 06:00:00 TS -23.93 115.36 0 0 O_____P__OP___ jtwc_sh SH141948 -24.20 115.30 -1 -23.49 115.40 -24.20 115.30 TC -24.19 115.34 7 14 164
1948 SI WA 09:00:00 TS -24.59 115.61 0 0 P_____P__PP___ SH141948 -24.86 115.60 -1 -24.15 115.59 -24.86 115.60 TC -24.87 115.65 7 14 158
1948 SI WA 11:00:00 TS -25.02 115.84 0 0 P_____P__PO___ SH141948 -25.29 115.86 -1 -24.58 115.77 -25.29 115.86 TC -25.30 115.90 7 14 154
1948 SI WA 12:00:00 TS -25.22 115.96 0 0 O_____P__OP___ jtwc_sh SH141948 -25.50 116.00 -1 -24.80 115.88 -25.50 116.00 TC -25.50 116.02 7 14 150
1948 SI WA 13:00:00 TS -25.41 116.09 bom 0 0 P_____O__PP___ SH141948 -25.69 116.14 -1 -25.00 116.00 -25.69 116.14 TC -25.69 116.16 7 14 146
1948 SI WA 15:00:00 TS -25.78 116.37 0 0 P_____P__PP___ SH141948 -26.06 116.46 -1 -25.37 116.24 -26.06 116.46 TC -26.07 116.45 7 14 142
1948 SI WA 18:00:00 TS -26.31 116.87 0 0 O_____P__OP___ jtwc_sh SH141948 -26.60 117.00 -1 -25.88 116.69 -26.60 117.00 TC -26.62 116.98 7 14 138
1948 SI WA 21:00:00 TS -26.83 117.43 0 0 P_____P__PP___ SH141948 -27.16 117.57 -1 -26.37 117.22 -27.16 117.57 TC -27.15 117.57 7 15 135
1948 SI WA 23:00:00 TS -27.17 117.83 0 0 P_____P__PO___ SH141948 -27.52 117.98 -1 -26.69 117.60 -27.52 117.98 TC -27.50 118.00 7 15 133
1948 SI WA 1948-02-22 00:00:00 TS -27.35 118.04 0 0 O_____P__OP___ jtwc_sh SH141948 -27.70 118.20 -1 -26.84 117.80 -27.70 118.20 TC -27.68 118.21 7 15 132
1948 SI WA 01:00:00 TS -27.51 118.25 984 bom 0 0 P_____O__PP___ SH141948 -27.87 118.42 -1 -27.00 118.00 984 -27.87 118.42 TC -27.87 118.42 7 15 131
1948 SI WA 03:00:00 TS -27.84 118.69 0 0 P_____P__PP___ SH141948 -28.20 118.87 -1 -27.31 118.41 -28.20 118.87 TC -28.23 118.88 7 16 130
1948 SI WA 06:00:00 TS -28.34 119.38 0 0 O_____P__OP___ jtwc_sh SH141948 -28.70 119.60 -1 -27.78 119.05 -28.70 119.60 TC -28.77 119.60 7 16 129
1948 SI WA 09:00:00 TS -28.85 120.11 0 0 P_____P__PP___ SH141948 -29.26 120.38 -1 -28.25 119.71 -29.26 120.38 TC -29.28 120.37 7 17 128
1948 SI WA 11:00:00 TS -29.19 120.62 0 0 P_____P__PO___ SH141948 -29.63 120.93 -1 -28.56 120.16 -29.63 120.93 TC -29.60 120.90 7 15 125
1948 SI WA 12:00:00 TS -29.30 120.84 0 0 O_____P__OP___ jtwc_sh SH141948 -29.80 121.20 -1 -28.71 120.39 -29.80 121.20 TC -29.75 121.17 7 14 121
1948 SI WA 15:00:00 TS -29.68 121.55 0 0 P_____P__PP___ SH141948 -30.23 122.00 -1 -29.18 121.09 -30.23 122.00 TC -30.18 122.00 7 14 120
1948 SI WA 18:00:00 TS -29.99 122.20 0 0 O_____P__OP___ jtwc_sh SH141948 -30.60 122.80 -1 -29.64 121.80 -30.60 122.80 TC -30.58 122.85 7 12 119
1948 SI WA 21:00:00 TS -30.27 122.80 0 0 ______P___P___ SH141948 -1 -30.10 122.52 TC -30.96 123.72 7 12 120
1948 SI WA 23:00:00 TS -30.52 123.24 0 0 ______P___O___ SH141948 -1 -30.40 123.01 TC -31.20 124.30 7 10 123
1948 SI WA 1948-02-23 00:00:00 TS -30.53 123.27 0 0 ______P_______ -1 -30.55 123.25 7 9 129
1948 SI WA 01:00:00 NR -30.70 123.50 994 bom 0 ______O_______ -1 -30.70 123.50 994 7 16 130